Amboy, Washington
Current Conditions -  °F | °C
As of 8:28 AM on Thursday 23 Oct 2014 (Local Time) from KSPB Reporting Station
Light Rain Light Rain  
Wind Chill: 55°   Ceiling: 1800
Heat Index: 55°   Visibility: 6mi
Dew Point: 53°   Wind: 5mph
Humidity: 93%   Direction: 340°NNW
Pressure: 29.78"   Gusts: NA
Location:  45.91°N, 122.45°W
Report Text: KSPB 231528Z AUTO 34004KT 6SM -RA BR SCT008 BKN018 OVC065 13/12 A2978 RMK AO2 RAE02B22 P0001 T01280117
Loading
Personal Weather Stations






























Interactive Weather Map
Tropical Storm Tracking
New forecast layout! Learn more

10-Day Weather Forecast

Advertisements
Track Severe Weather on mobile